Terminal Aerodrome Forecast
Issued by NWS

Home | Current Version | Previous Version | Graphics & Text | Print | Product List | Glossary On
Versions: 1 2 3 4 5 6 7 8 9 10 11 12 13 14 15 16 17 18 19 20 21 22 23 24 25 26 27
509
FTUS43 KABR 240524
TAFATY
TAF
KATY 240524Z 2406/2506 VRB05KT P6SM OVC004
     FM240900 02013KT 4SM BR OVC003
     FM241900 02017G24KT P6SM BKN035
     FM242100 02010KT P6SM SCT250=

USA.gov is the U.S. government's official web portal to all federal, state and local government web resources and services.